• Join FlightAware (Why Join?)
  • Login
  • US Flag 
06:30AM EDT


 

Airport Tracker/Info


-or-


 

Live Flight TrackerFlight Track Log ✈ CTL22 ✈ 22-Apr-2013 ✈ KAZO - KBKL

Flight Track Log - Related Links

Times and Time Zones

All times are in EDT time to prevent confusion due to time zone crossing. See the CTL22 flight status page for this flight to view local times or setup timezone preferences in your user account.

Time Position Orientation Groundspeed Altitude Reporting Facility
EDT Latitude Longitude Course Direction KTS MPH feet Rate Location/Type
08:10PM 42.1767 -85.4422 119° Southeast 123 142 3,700  Level Chicago Center
08:11PM 42.1597 -85.3944 116° Southeast 135 155 4,200 480 Climbing Chicago Center
08:12PM 42.1431 -85.3475 116° Southeast 138 159 4,800 480 Climbing Chicago Center
08:13PM 42.1735 -85.1896 103° East  Level Estimated
08:13PM 42.1253 -85.2992 116° Southeast 142 163 5,300  Level Chicago Center
08:14PM 42.1632 -85.1293 103° East  Level Estimated
08:14PM 42.1047 -85.2392 115° Southeast 146 168 5,900  Level Chicago Center
08:15PM 42.0878 -85.1878 114° Southeast 149 171 6,400 360 Climbing Chicago Center
08:16PM 42.0675 -85.1375 119° Southeast 151 174 6,700 240 Climbing Chicago Center
08:17PM 42.0492 -85.0856 115° Southeast 153 176 7,000 120 Climbing Chicago Center
08:18PM 42.0306 -85.0278 113° Southeast 162 186 7,000  Level Chicago Center
08:19PM 42.0122 -84.9694 113° Southeast 167 192 7,000  Level Chicago Center
08:20PM 41.9928 -84.9131 115° Southeast 166 191 7,000  Level Chicago Center
08:21PM 41.9656 -84.8464 119° Southeast 168 193 7,000  Level Chicago Center
08:22PM 41.9481 -84.7897 113° Southeast 165 190 7,000  Level Chicago Center
08:23PM 41.9289 -84.7322 114° Southeast 166 191 7,000  Level Chicago Center
08:24PM 41.9106 -84.6747 113° Southeast 168 193 7,000 -60 Level Chicago Center
08:25PM 41.8892 -84.6181 117° Southeast 170 196 6,900 -60 Descending Chicago Center
08:26PM 41.8703 -84.5611 114° Southeast 168 193 6,900  Level Chicago Center
08:27PM 41.8506 -84.5044 115° Southeast 168 193 6,900  Level Chicago Center
08:28PM 41.8261 -84.4392 117° Southeast 165 190 6,900  Level Chicago Center
08:29PM 41.8153 -84.3775 103° East 169 194 6,900  Level Chicago Center
08:30PM 41.8133 -84.3142 92° East 170 196 6,900  Level Chicago Center
08:31PM 41.8025 -84.2575 104° East 164 189 6,900  Level Chicago Center
08:32PM 41.7964 -84.1958 98° East 164 189 7,000  Climbing Chicago Center
08:52PM 41.6869 -82.9772 96° East 175 201 7,100  Climbing Cleveland Center
08:52PM 41.6850 -82.9633 101° East 176 203 7,100  Level Cleveland Center
08:53PM 41.6844 -82.8936 91° East 175 201 7,100  Level Cleveland Center
08:54PM 41.6792 -82.8433 98° East 171 197 7,100  Level Cleveland Center
08:55PM 41.6722 -82.7736 98° East 173 199 7,100  Level Cleveland Center
08:56PM 41.6672 -82.7069 96° East 175 201 7,100  Level Cleveland Center
08:57PM 41.6642 -82.6400 93° East 171 197 7,100  Level Cleveland Center
08:58PM 41.6569 -82.5758 99° East 171 197 7,100  Level Cleveland Center
08:59PM 41.6475 -82.5200 103° East 172 198 7,100 -180 Level Cleveland Center
09:00PM 41.6403 -82.4558 99° East 173 199 6,800 -360 Descending Cleveland Center
09:01PM 41.6350 -82.3889 96° East 188 216 6,400 -540 Descending Cleveland Center
09:02PM 41.6322 -82.3139 93° East 184 212 5,800 -660 Descending Cleveland Center
09:03PM 41.6269 -82.2472 96° East 184 212 5,100 -720 Descending Cleveland Center
09:04PM 41.6236 -82.1803 94° East 178 205 4,400 -780 Descending Cleveland Center
09:05PM 41.6244 -82.1164 89° East 172 198 3,600 -660 Descending Cleveland Center
09:06PM 41.6253 -82.0525 89° East 166 191 3,100 -300 Descending Cleveland Center
09:07PM 41.6219 -81.9942 94° East 158 182 3,000 -60 Descending Cleveland Center
09:08PM 41.6247 -81.9386 86° East 148 170 3,000 -480 Level Cleveland Center
09:09PM 41.6233 -81.8719 92° East 176 203 2,100 -600 Descending Cleveland Center
09:10PM 41.5989 -81.8214 123° Southeast 157 181 1,800 -420 Descending Cleveland Center
09:11PM 41.5639 -81.7792 138° Southeast 160 184 1,300 -300 Descending Cleveland Center
09:12PM 41.5372 -81.7456 137° Southeast 150 173 1,300 -180 Level Cleveland Center
09:13PM 41.5144 -81.7117 132° Southeast 92 106 1,000 -300 Descending Cleveland Center
09:15PM 41.5175 -81.6833 98° East  Level Estimated
09:22PM 41.5175 -81.6833 98° East  Level Estimated